Time;durP1;ratioP1;P1;durP2;ratioP2;P2;SDS_P1;SDS_P2;PMS_P1;PMS_P2;Temp;Humidity;BMP_temperature;BMP_pressure;BME280_temperature;BME280_humidity;BME280_pressure;Samples;Min_cycle;Max_cycle;Signal;HPM_P1;HPM_P2
2023/09/19 00:00:25;;;;;;;0.20;0.20;;;;;;;;;;4826071;29;20045;-86
2023/09/19 00:02:54;;;;;;;0.10;0.10;;;;;;;;;;4825706;29;20524;-86
2023/09/19 00:05:23;;;;;;;0.10;0.10;;;;;;;;;;4826120;29;20064;-85
2023/09/19 00:07:50;;;;;;;0.10;0.10;;;;;;;;;;4825764;29;20050;-85
2023/09/19 00:10:16;;;;;;;0.10;0.10;;;;;;;;;;4842175;29;20056;-85
2023/09/19 00:12:45;;;;;;;0.10;0.10;;;;;;;;;;4825813;29;20050;-85
2023/09/19 00:15:11;;;;;;;0.10;0.10;;;;;;;;;;4825607;29;20494;-85
2023/09/19 00:17:40;;;;;;;0.10;0.10;;;;;;;;;;4810435;29;20050;-85
2023/09/19 00:20:12;;;;;;;0.10;0.10;;;;;;;;;;4825708;29;20057;-85
2023/09/19 00:22:44;;;;;;;0.10;0.10;;;;;;;;;;4841657;29;20487;-85
2023/09/19 00:25:11;;;;;;;0.15;0.15;;;;;;;;;;4825625;29;20406;-85
2023/09/19 00:27:42;;;;;;;0.10;0.10;;;;;;;;;;4805142;29;20406;-85
2023/09/19 00:30:15;;;;;;;0.10;0.10;;;;;;;;;;4804116;29;20472;-85
2023/09/19 00:32:42;;;;;;;0.10;0.10;;;;;;;;;;4804285;29;20054;-85
2023/09/19 00:35:10;;;;;;;0.10;0.10;;;;;;;;;;4803954;29;20054;-85
2023/09/19 00:37:37;;;;;;;0.10;0.10;;;;;;;;;;4789719;29;20369;-85
2023/09/19 00:40:05;;;;;;;0.10;0.10;;;;;;;;;;4803999;29;20046;-85
2023/09/19 00:42:31;;;;;;;0.10;0.10;;;;;;;;;;4803983;29;20051;-86
2023/09/19 00:44:57;;;;;;;0.10;0.10;;;;;;;;;;4804091;29;20050;-85
2023/09/19 00:47:24;;;;;;;0.10;0.10;;;;;;;;;;4804135;29;20046;-86
2023/09/19 00:49:51;;;;;;;0.10;0.10;;;;;;;;;;4803986;29;20055;-86
2023/09/19 00:52:19;;;;;;;0.10;0.10;;;;;;;;;;4804246;29;20126;-86
2023/09/19 00:54:47;;;;;;;0.10;0.10;;;;;;;;;;4803996;29;20061;-86
2023/09/19 00:57:14;;;;;;;0.10;0.10;;;;;;;;;;4803868;29;20499;-87
2023/09/19 00:59:40;;;;;;;0.10;0.10;;;;;;;;;;4803808;29;20047;-86
2023/09/19 01:02:07;;;;;;;0.10;0.10;;;;;;;;;;4789000;29;20096;-86
2023/09/19 01:04:33;;;;;;;0.10;0.10;;;;;;;;;;4803692;29;20115;-86
2023/09/19 01:06:59;;;;;;;0.10;0.10;;;;;;;;;;4803714;29;20043;-86
2023/09/19 01:09:26;;;;;;;0.10;0.10;;;;;;;;;;4788681;29;20089;-86
2023/09/19 01:11:52;;;;;;;0.10;0.10;;;;;;;;;;4789038;29;20455;-85
2023/09/19 01:14:24;;;;;;;0.10;0.10;;;;;;;;;;4788723;29;20130;-85
2023/09/19 01:16:53;;;;;;;0.10;0.10;;;;;;;;;;4789077;29;20058;-85
2023/09/19 01:19:38;;;;;;;0.10;0.10;;;;;;;;;;4804980;29;20051;-85
2023/09/19 01:22:10;;;;;;;0.10;0.10;;;;;;;;;;4803823;29;20418;-86
2023/09/19 01:24:39;;;;;;;0.10;0.10;;;;;;;;;;4788873;29;20454;-85
2023/09/19 01:27:31;;;;;;;0.10;0.10;;;;;;;;;;4802275;29;20069;-85
2023/09/19 01:30:07;;;;;;;0.10;0.10;;;;;;;;;;4787839;29;20070;-85
2023/09/19 01:32:34;;;;;;;0.10;0.10;;;;;;;;;;4821947;29;20058;-85
2023/09/19 01:35:03;;;;;;;0.10;0.10;;;;;;;;;;4825236;29;20065;-85
2023/09/19 01:37:31;;;;;;;0.10;0.10;;;;;;;;;;4825052;29;20129;-85
2023/09/19 01:40:19;;;;;;;0.10;0.10;;;;;;;;;;4810214;29;20058;-85
2023/09/19 01:42:48;;;;;;;0.10;0.10;;;;;;;;;;4812096;29;20061;-86
2023/09/19 01:45:18;;;;;;;0.10;0.10;;;;;;;;;;4824720;29;20426;-86
2023/09/19 01:47:50;;;;;;;0.10;0.10;;;;;;;;;;4825012;29;20102;-86
2023/09/19 01:50:40;;;;;;;0.50;0.50;;;;;;;;;;4824856;29;20336;-86
2023/09/19 01:53:25;;;;;;;0.10;0.10;;;;;;;;;;4809966;29;20050;-86
2023/09/19 01:55:51;;;;;;;0.10;0.10;;;;;;;;;;4824816;29;20441;-86
2023/09/19 01:58:22;;;;;;;0.10;0.10;;;;;;;;;;4824536;29;20050;-85
2023/09/19 02:00:48;;;;;;;0.10;0.10;;;;;;;;;;4809818;29;20050;-86
2023/09/19 02:03:13;;;;;;;0.10;0.10;;;;;;;;;;4809579;29;20103;-85
2023/09/19 02:05:39;;;;;;;0.10;0.10;;;;;;;;;;4824318;29;20050;-85
2023/09/19 02:08:05;;;;;;;0.10;0.10;;;;;;;;;;4824549;29;20459;-85
2023/09/19 02:10:31;;;;;;;0.10;0.10;;;;;;;;;;4809793;29;20054;-85
2023/09/19 02:12:59;;;;;;;0.10;0.10;;;;;;;;;;4794774;29;20450;-85
2023/09/19 02:15:24;;;;;;;0.10;0.10;;;;;;;;;;4825651;29;20046;-84
2023/09/19 02:17:51;;;;;;;0.10;0.10;;;;;;;;;;4809236;29;20464;-85
2023/09/19 02:20:19;;;;;;;0.10;0.10;;;;;;;;;;4824470;29;20398;-85
2023/09/19 02:22:45;;;;;;;0.10;0.10;;;;;;;;;;4824492;29;20403;-85
2023/09/19 02:25:13;;;;;;;0.10;0.10;;;;;;;;;;4825332;29;20521;-85
2023/09/19 02:27:39;;;;;;;0.10;0.10;;;;;;;;;;4843723;29;20046;-85
2023/09/19 02:30:06;;;;;;;0.10;0.10;;;;;;;;;;4812173;29;20042;-85
2023/09/19 02:32:35;;;;;;;0.10;0.10;;;;;;;;;;4812174;29;20050;-85
2023/09/19 02:35:01;;;;;;;0.10;0.10;;;;;;;;;;4826961;29;20054;-85
2023/09/19 02:37:27;;;;;;;0.10;0.10;;;;;;;;;;4827479;29;20063;-85
2023/09/19 02:39:53;;;;;;;0.10;0.10;;;;;;;;;;4827038;29;20056;-84
2023/09/19 02:42:19;;;;;;;0.10;0.10;;;;;;;;;;4826980;29;20058;-86
2023/09/19 02:44:46;;;;;;;0.30;0.30;;;;;;;;;;4843331;29;20042;-86
2023/09/19 02:47:14;;;;;;;0.10;0.10;;;;;;;;;;4826875;29;20241;-86
2023/09/19 02:49:42;;;;;;;0.10;0.10;;;;;;;;;;4797232;29;20102;-86
2023/09/19 02:52:08;;;;;;;0.10;0.10;;;;;;;;;;4812097;29;20054;-86
2023/09/19 02:54:34;;;;;;;0.10;0.10;;;;;;;;;;4812009;29;20046;-86
2023/09/19 02:57:00;;;;;;;0.10;0.10;;;;;;;;;;4826917;29;20046;-86
2023/09/19 02:59:26;;;;;;;0.10;0.10;;;;;;;;;;4826798;29;20054;-87
2023/09/19 03:01:54;;;;;;;0.10;0.10;;;;;;;;;;4843102;29;20190;-86
2023/09/19 03:04:20;;;;;;;0.10;0.10;;;;;;;;;;4826631;29;20102;-86
2023/09/19 03:06:46;;;;;;;0.10;0.10;;;;;;;;;;4826933;29;20041;-87
2023/09/19 03:09:13;;;;;;;0.10;0.10;;;;;;;;;;4826439;29;20073;-86
2023/09/19 03:11:41;;;;;;;0.10;0.10;;;;;;;;;;4843006;29;20098;-86
2023/09/19 03:14:07;;;;;;;0.10;0.10;;;;;;;;;;4826422;29;20053;-84
2023/09/19 03:16:33;;;;;;;0.10;0.10;;;;;;;;;;4826439;29;20106;-85
2023/09/19 03:18:59;;;;;;;0.20;0.20;;;;;;;;;;4826802;29;20048;-85
2023/09/19 03:21:25;;;;;;;0.10;0.10;;;;;;;;;;4826392;29;20046;-85
2023/09/19 03:23:51;;;;;;;0.10;0.10;;;;;;;;;;4826271;29;20053;-85
2023/09/19 03:26:17;;;;;;;0.10;0.10;;;;;;;;;;4811141;29;20062;-85
2023/09/19 03:28:43;;;;;;;0.10;0.10;;;;;;;;;;4826181;29;20053;-85
2023/09/19 03:31:10;;;;;;;0.10;0.10;;;;;;;;;;4811386;29;20435;-86
2023/09/19 03:33:37;;;;;;;0.10;0.10;;;;;;;;;;4842677;29;20049;-85
2023/09/19 03:36:04;;;;;;;0.10;0.10;;;;;;;;;;4826476;29;20045;-86
2023/09/19 03:38:31;;;;;;;0.10;0.10;;;;;;;;;;4826271;29;20123;-86
2023/09/19 03:40:57;;;;;;;0.10;0.10;;;;;;;;;;4796026;29;20052;-86
2023/09/19 03:43:23;;;;;;;0.10;0.10;;;;;;;;;;4810766;29;20049;-85
2023/09/19 03:45:50;;;;;;;0.10;0.10;;;;;;;;;;4826125;29;20055;-85
2023/09/19 03:48:17;;;;;;;0.10;0.10;;;;;;;;;;4825878;29;20050;-85
2023/09/19 03:50:43;;;;;;;0.10;0.10;;;;;;;;;;4826223;29;20086;-86
2023/09/19 03:53:09;;;;;;;0.10;0.10;;;;;;;;;;4825975;29;20214;-86
2023/09/19 03:55:35;;;;;;;0.10;0.10;;;;;;;;;;4841642;29;20543;-85
2023/09/19 03:58:05;;;;;;;0.10;0.10;;;;;;;;;;4825899;29;20052;-86
2023/09/19 04:00:31;;;;;;;0.10;0.10;;;;;;;;;;4826189;29;20082;-85
2023/09/19 04:02:57;;;;;;;0.20;0.20;;;;;;;;;;4810591;29;20050;-86
2023/09/19 04:05:23;;;;;;;0.10;0.10;;;;;;;;;;4825611;29;20053;-86
2023/09/19 04:07:50;;;;;;;0.10;0.10;;;;;;;;;;4810672;29;20448;-86
2023/09/19 04:10:16;;;;;;;0.17;0.17;;;;;;;;;;4810752;29;20422;-87
2023/09/19 04:12:42;;;;;;;0.10;0.10;;;;;;;;;;4810263;29;20050;-84
2023/09/19 04:15:08;;;;;;;0.10;0.10;;;;;;;;;;4825557;29;20125;-85
2023/09/19 04:17:34;;;;;;;0.10;0.10;;;;;;;;;;4825572;29;20494;-85
2023/09/19 04:20:00;;;;;;;0.10;0.10;;;;;;;;;;4825499;29;20050;-85
2023/09/19 04:22:26;;;;;;;0.10;0.10;;;;;;;;;;4825586;29;20042;-85
2023/09/19 04:24:52;;;;;;;0.10;0.10;;;;;;;;;;4795499;29;20054;-86
2023/09/19 04:27:18;;;;;;;0.10;0.10;;;;;;;;;;4810244;29;20066;-84
2023/09/19 04:29:44;;;;;;;0.10;0.10;;;;;;;;;;4810487;29;20518;-85
2023/09/19 04:32:12;;;;;;;0.30;0.30;;;;;;;;;;4825431;29;20073;-85
2023/09/19 04:34:39;;;;;;;0.10;0.10;;;;;;;;;;4810332;29;20110;-86
2023/09/19 04:37:05;;;;;;;0.10;0.10;;;;;;;;;;4825437;29;20077;-85
2023/09/19 04:39:30;;;;;;;0.10;0.10;;;;;;;;;;4810452;29;20049;-85
2023/09/19 04:41:57;;;;;;;0.10;0.10;;;;;;;;;;4825195;29;20053;-85
2023/09/19 04:44:23;;;;;;;0.10;0.10;;;;;;;;;;4795117;29;20034;-85
2023/09/19 04:46:50;;;;;;;0.10;0.10;;;;;;;;;;4825238;29;20048;-85
2023/09/19 04:49:17;;;;;;;0.10;0.10;;;;;;;;;;4809952;29;20125;-85
2023/09/19 04:51:43;;;;;;;0.10;0.10;;;;;;;;;;4825445;29;20073;-84
2023/09/19 04:54:09;;;;;;;0.10;0.10;;;;;;;;;;4825037;29;20491;-85
2023/09/19 04:56:35;;;;;;;0.10;0.10;;;;;;;;;;4841469;29;20049;-84
2023/09/19 04:59:01;;;;;;;0.10;0.10;;;;;;;;;;4825058;29;20050;-84
2023/09/19 05:01:27;;;;;;;0.10;0.10;;;;;;;;;;4809846;29;20102;-85
2023/09/19 05:03:53;;;;;;;0.10;0.10;;;;;;;;;;4825177;29;20133;-84
2023/09/19 05:06:22;;;;;;;0.10;0.10;;;;;;;;;;4824983;29;20582;-84
2023/09/19 05:08:51;;;;;;;0.20;0.20;;;;;;;;;;4828576;29;20536;-84
2023/09/19 05:11:18;;;;;;;0.10;0.10;;;;;;;;;;4828838;29;20062;-83
2023/09/19 05:13:44;;;;;;;0.10;0.10;;;;;;;;;;4828435;29;20046;-83
2023/09/19 05:16:10;;;;;;;0.10;0.10;;;;;;;;;;4845056;29;20052;-84
2023/09/19 05:18:36;;;;;;;0.10;0.10;;;;;;;;;;4828571;29;20054;-84
2023/09/19 05:21:05;;;;;;;0.10;0.10;;;;;;;;;;4813308;29;20566;-84
2023/09/19 05:23:31;;;;;;;0.10;0.10;;;;;;;;;;4813156;29;20547;-85
2023/09/19 05:25:59;;;;;;;0.10;0.10;;;;;;;;;;4813191;29;20057;-85
2023/09/19 05:28:25;;;;;;;0.10;0.10;;;;;;;;;;4798433;29;20085;-85
2023/09/19 05:30:53;;;;;;;0.40;0.40;;;;;;;;;;4828170;29;20089;-85
2023/09/19 05:33:19;;;;;;;0.10;0.10;;;;;;;;;;4813072;29;20046;-85
2023/09/19 05:35:46;;;;;;;0.10;0.10;;;;;;;;;;4828282;29;20118;-85
2023/09/19 05:38:13;;;;;;;0.10;0.10;;;;;;;;;;4813282;29;20058;-84
2023/09/19 05:40:42;;;;;;;0.10;0.10;;;;;;;;;;4828380;29;20057;-84
2023/09/19 05:43:08;;;;;;;0.10;0.10;;;;;;;;;;4798625;29;20049;-85
2023/09/19 05:45:34;;;;;;;0.10;0.10;;;;;;;;;;4828063;29;20478;-84
2023/09/19 05:48:07;;;;;;;0.10;0.10;;;;;;;;;;4827826;29;20050;-84
2023/09/19 05:50:33;;;;;;;0.10;0.10;;;;;;;;;;4827681;29;20505;-83
2023/09/19 05:52:59;;;;;;;0.43;0.43;;;;;;;;;;4828144;29;20053;-84
2023/09/19 05:55:25;;;;;;;0.10;0.10;;;;;;;;;;4827628;29;20038;-84
2023/09/19 05:57:52;;;;;;;0.10;0.10;;;;;;;;;;4827657;29;20129;-83
2023/09/19 06:00:24;;;;;;;0.10;0.10;;;;;;;;;;4827822;29;20045;-83
2023/09/19 06:02:53;;;;;;;0.10;0.10;;;;;;;;;;4844226;29;20056;-83
2023/09/19 06:05:21;;;;;;;0.10;0.10;;;;;;;;;;4827896;29;20173;-83
2023/09/19 06:07:47;;;;;;;1.10;0.77;;;;;;;;;;4827454;29;20064;-83
2023/09/19 06:10:14;;;;;;;0.10;0.10;;;;;;;;;;4827544;29;20077;-84
2023/09/19 06:12:40;;;;;;;0.10;0.10;;;;;;;;;;4812850;29;20141;-83
2023/09/19 06:15:12;;;;;;;0.10;0.10;;;;;;;;;;4843895;29;20511;-83
2023/09/19 06:17:41;;;;;;;0.17;0.17;;;;;;;;;;4827581;29;20060;-85
2023/09/19 06:20:13;;;;;;;0.10;0.10;;;;;;;;;;4826838;29;20549;-85
2023/09/19 06:22:41;;;;;;;;;;;;;;;;;;4813234;29;20061;-85
2023/09/19 06:25:07;;;;;;;0.10;0.10;;;;;;;;;;4844104;29;19921;-85
2023/09/19 06:27:36;;;;;;;0.20;0.20;;;;;;;;;;4826996;29;20517;-88
2023/09/19 06:30:02;;;;;;;0.10;0.10;;;;;;;;;;4812316;29;20129;-86
2023/09/19 06:32:28;;;;;;;0.10;0.10;;;;;;;;;;4827174;29;20057;-89
2023/09/19 06:34:55;;;;;;;0.10;0.10;;;;;;;;;;4797290;29;20046;-87
2023/09/19 06:37:22;;;;;;;0.10;0.10;;;;;;;;;;4812150;29;20142;-87
2023/09/19 06:39:49;;;;;;;0.10;0.10;;;;;;;;;;4812189;29;20049;-86
2023/09/19 06:42:17;;;;;;;0.10;0.10;;;;;;;;;;4812458;29;20045;-86
2023/09/19 06:44:43;;;;;;;0.10;0.10;;;;;;;;;;4797339;29;20137;-85
2023/09/19 06:47:10;;;;;;;0.57;0.28;;;;;;;;;;4826899;29;20085;-85
2023/09/19 06:49:36;;;;;;;0.30;0.30;;;;;;;;;;4827012;29;20053;-85
2023/09/19 06:52:02;;;;;;;0.10;0.10;;;;;;;;;;4812039;29;20109;-85
2023/09/19 06:54:31;;;;;;;0.10;0.10;;;;;;;;;;4811920;29;20134;-85
2023/09/19 06:56:58;;;;;;;0.20;0.20;;;;;;;;;;4818985;29;20426;-85
2023/09/19 06:59:24;;;;;;;0.10;0.10;;;;;;;;;;4859076;29;20050;-85
2023/09/19 07:01:53;;;;;;;0.10;0.10;;;;;;;;;;4843007;29;20164;-84
2023/09/19 07:04:20;;;;;;;0.10;0.10;;;;;;;;;;4845096;29;20075;-86
2023/09/19 07:06:52;;;;;;;0.10;0.10;;;;;;;;;;4831607;29;20073;-85
2023/09/19 07:09:22;;;;;;;0.10;0.10;;;;;;;;;;4835994;29;20383;-85
2023/09/19 07:11:50;;;;;;;0.10;0.10;;;;;;;;;;4811532;29;20053;-86
2023/09/19 07:14:16;;;;;;;0.10;0.10;;;;;;;;;;4826563;29;20050;-85
2023/09/19 07:16:44;;;;;;;0.20;0.20;;;;;;;;;;4826511;29;20505;-84
2023/09/19 07:19:10;;;;;;;0.10;0.10;;;;;;;;;;4826824;29;20057;-85
2023/09/19 07:21:38;;;;;;;0.20;0.20;;;;;;;;;;4842808;29;20094;-85
2023/09/19 07:24:04;;;;;;;0.15;0.15;;;;;;;;;;4826611;29;20486;-85
2023/09/19 07:26:31;;;;;;;0.10;0.10;;;;;;;;;;4826171;29;20072;-85
2023/09/19 07:28:57;;;;;;;0.30;0.30;;;;;;;;;;4811196;29;20056;-85
2023/09/19 07:31:25;;;;;;;0.10;0.10;;;;;;;;;;4810224;29;20084;-85
2023/09/19 07:33:51;;;;;;;0.20;0.20;;;;;;;;;;4826199;29;20053;-86
2023/09/19 07:36:17;;;;;;;0.13;0.13;;;;;;;;;;4811199;29;20049;-85
2023/09/19 07:38:43;;;;;;;0.13;0.13;;;;;;;;;;4811135;29;20379;-85
2023/09/19 07:41:09;;;;;;;0.10;0.10;;;;;;;;;;4842577;29;20049;-85
2023/09/19 07:43:41;;;;;;;0.10;0.10;;;;;;;;;;4810916;29;20090;-85
2023/09/19 07:46:08;;;;;;;0.10;0.10;;;;;;;;;;4811368;29;20049;-85
2023/09/19 07:48:35;;;;;;;0.10;0.10;;;;;;;;;;4811142;29;20125;-85
2023/09/19 07:51:06;;;;;;;0.10;0.10;;;;;;;;;;4810819;29;20054;-85
2023/09/19 07:53:34;;;;;;;0.20;0.20;;;;;;;;;;4825990;29;20061;-84
2023/09/19 07:56:04;;;;;;;0.10;0.10;;;;;;;;;;4795996;29;20038;-85
2023/09/19 07:58:31;;;;;;;0.10;0.10;;;;;;;;;;4810739;29;20053;-84
2023/09/19 08:00:57;;;;;;;0.10;0.10;;;;;;;;;;4826092;29;20506;-86
2023/09/19 08:03:22;;;;;;;0.10;0.10;;;;;;;;;;4825721;29;20125;-88
2023/09/19 08:05:49;;;;;;;0.10;0.10;;;;;;;;;;4810611;29;20126;-86
2023/09/19 08:08:15;;;;;;;0.10;0.10;;;;;;;;;;4810503;29;20042;-85
2023/09/19 08:10:43;;;;;;;0.10;0.10;;;;;;;;;;4810822;29;20057;-86
2023/09/19 08:13:13;;;;;;;0.10;0.10;;;;;;;;;;4810381;29;20046;-86
2023/09/19 08:15:43;;;;;;;0.10;0.10;;;;;;;;;;4810326;29;20495;-85
2023/09/19 08:18:12;;;;;;;0.10;0.10;;;;;;;;;;4825873;29;20046;-86
2023/09/19 08:20:42;;;;;;;0.20;0.20;;;;;;;;;;4825392;29;20524;-86
2023/09/19 08:23:08;;;;;;;0.10;0.10;;;;;;;;;;4795697;29;20079;-86
2023/09/19 08:25:34;;;;;;;0.10;0.10;;;;;;;;;;4825220;29;20126;-86
2023/09/19 08:28:01;;;;;;;0.10;0.10;;;;;;;;;;4825385;29;20058;-86
2023/09/19 08:30:30;;;;;;;0.20;0.20;;;;;;;;;;4795341;29;20094;-86
2023/09/19 08:32:59;;;;;;;0.10;0.10;;;;;;;;;;4795568;29;20061;-85
2023/09/19 08:35:25;;;;;;;0.10;0.10;;;;;;;;;;4810378;29;20106;-87
2023/09/19 08:37:51;;;;;;;0.10;0.10;;;;;;;;;;4825648;29;20061;-87
2023/09/19 08:40:17;;;;;;;0.45;0.45;;;;;;;;;;4810323;29;20077;-86
2023/09/19 08:42:53;;;;;;;0.10;0.10;;;;;;;;;;4824863;29;20045;-85
2023/09/19 08:45:21;;;;;;;0.10;0.10;;;;;;;;;;4810249;29;20372;-85
2023/09/19 08:48:07;;;;;;;0.20;0.20;;;;;;;;;;4825517;29;20057;-86
2023/09/19 08:50:34;;;;;;;0.10;0.10;;;;;;;;;;4803709;29;20058;-86
2023/09/19 08:53:04;;;;;;;0.10;0.10;;;;;;;;;;4825064;29;20046;-85
2023/09/19 08:55:30;;;;;;;0.10;0.10;;;;;;;;;;4825167;29;20060;-86
2023/09/19 08:57:59;;;;;;;0.20;0.20;;;;;;;;;;4809914;29;20479;-86
2023/09/19 09:00:27;;;;;;;0.30;0.30;;;;;;;;;;4810117;29;20050;-86
2023/09/19 09:02:54;;;;;;;0.10;0.10;;;;;;;;;;4825792;29;20050;-86
2023/09/19 09:05:22;;;;;;;0.10;0.10;;;;;;;;;;4810124;29;20050;-86
2023/09/19 09:07:50;;;;;;;0.10;0.10;;;;;;;;;;4795350;29;20046;-85
2023/09/19 09:10:16;;;;;;;0.10;0.10;;;;;;;;;;4841516;29;20134;-84
2023/09/19 09:12:43;;;;;;;0.20;0.20;;;;;;;;;;4810073;29;20050;-85
2023/09/19 09:15:11;;;;;;;0.22;0.22;;;;;;;;;;4809994;29;20058;-86
2023/09/19 09:17:37;;;;;;;0.20;0.20;;;;;;;;;;4795074;29;20053;-86
2023/09/19 09:20:09;;;;;;;0.55;0.55;;;;;;;;;;4809801;29;20081;-85
2023/09/19 09:22:39;;;;;;;;;;;;;;;;;;4825188;29;20065;-86
2023/09/19 09:25:05;;;;;;;0.10;0.10;;;;;;;;;;4824607;29;19920;-86
2023/09/19 09:27:34;;;;;;;0.10;0.10;;;;;;;;;;4809533;29;20065;-86
2023/09/19 09:30:00;;;;;;;0.10;0.10;;;;;;;;;;4825425;29;20281;-87
2023/09/19 09:32:31;;;;;;;0.10;0.10;;;;;;;;;;4810043;29;20504;-90
2023/09/19 09:35:01;;;;;;;0.15;0.15;;;;;;;;;;4795250;29;20046;-86
2023/09/19 09:37:29;;;;;;;0.20;0.20;;;;;;;;;;4794651;29;20133;-86
2023/09/19 09:40:18;;;;;;;0.10;0.10;;;;;;;;;;4824883;29;20128;-86
2023/09/19 09:42:49;;;;;;;0.10;0.10;;;;;;;;;;4809910;29;20714;-86
2023/09/19 09:48:03;;;;;;;0.20;0.20;;;;;;;;;;4826841;29;20048;-88
2023/09/19 09:50:36;;;;;;;0.10;0.10;;;;;;;;;;4810851;29;20046;-88
2023/09/19 09:53:09;;;;;;;0.17;0.17;;;;;;;;;;4824557;29;20058;-87
2023/09/19 09:56:02;;;;;;;0.10;0.10;;;;;;;;;;4843997;29;20050;-87
2023/09/19 09:58:32;;;;;;;0.10;0.10;;;;;;;;;;4825650;29;20065;-87
2023/09/19 10:00:59;;;;;;;0.20;0.20;;;;;;;;;;4813312;29;20057;-87
2023/09/19 10:03:34;;;;;;;0.50;0.50;;;;;;;;;;4828187;29;20049;-88
2023/09/19 10:06:08;;;;;;;0.10;0.10;;;;;;;;;;4812918;29;20057;-89
2023/09/19 10:08:36;;;;;;;0.20;0.20;;;;;;;;;;4813722;29;20050;-89
2023/09/19 10:11:06;;;;;;;0.10;0.10;;;;;;;;;;4812506;29;20053;-87
2023/09/19 10:13:33;;;;;;;0.10;0.10;;;;;;;;;;4798129;29;20051;-87
2023/09/19 10:16:00;;;;;;;0.20;0.20;;;;;;;;;;4812597;29;20042;-88
2023/09/19 10:18:27;;;;;;;0.10;0.10;;;;;;;;;;4812824;29;20081;-87
2023/09/19 10:20:54;;;;;;;0.20;0.20;;;;;;;;;;4812499;29;20053;-88
2023/09/19 10:23:24;;;;;;;0.20;0.20;;;;;;;;;;4827715;29;20097;-88
2023/09/19 10:25:50;;;;;;;0.10;0.10;;;;;;;;;;4827359;29;20062;-87
2023/09/19 10:28:20;;;;;;;0.20;0.20;;;;;;;;;;4814674;29;20146;-88
2023/09/19 10:30:48;;;;;;;0.10;0.10;;;;;;;;;;4815185;29;20057;-88
2023/09/19 10:33:15;;;;;;;0.20;0.20;;;;;;;;;;4797213;29;20052;-87
2023/09/19 10:35:44;;;;;;;0.15;0.15;;;;;;;;;;4796950;29;20124;-87
2023/09/19 10:38:11;;;;;;;0.20;0.20;;;;;;;;;;4812075;29;20398;-87
2023/09/19 10:40:40;;;;;;;0.20;0.20;;;;;;;;;;4811849;29;20061;-87
2023/09/19 10:43:06;;;;;;;0.57;0.57;;;;;;;;;;4812202;29;20053;-87
2023/09/19 10:45:33;;;;;;;0.10;0.10;;;;;;;;;;4796884;29;20447;-87
2023/09/19 10:48:00;;;;;;;0.17;0.17;;;;;;;;;;4827177;29;20089;-88
2023/09/19 10:50:26;;;;;;;0.35;0.35;;;;;;;;;;4812039;29;20200;-89
2023/09/19 10:52:58;;;;;;;0.20;0.20;;;;;;;;;;4811943;29;20093;-90
2023/09/19 10:55:24;;;;;;;0.10;0.10;;;;;;;;;;4826818;29;20506;-89
2023/09/19 10:57:50;;;;;;;0.10;0.10;;;;;;;;;;4796964;29;20046;-88
2023/09/19 11:00:26;;;;;;;0.10;0.10;;;;;;;;;;4811461;29;20486;-87
2023/09/19 11:03:14;;;;;;;0.45;0.45;;;;;;;;;;4797617;29;20152;-88
2023/09/19 11:05:40;;;;;;;0.10;0.10;;;;;;;;;;4826300;29;20050;-87
2023/09/19 11:08:11;;;;;;;0.20;0.20;;;;;;;;;;4811485;29;20419;-88
2023/09/19 11:10:50;;;;;;;0.10;0.10;;;;;;;;;;4811399;29;20151;-86
2023/09/19 11:13:34;;;;;;;0.35;0.30;;;;;;;;;;4811221;29;20034;-87
2023/09/19 11:16:00;;;;;;;0.20;0.20;;;;;;;;;;4811937;29;20110;-86
2023/09/19 11:18:42;;;;;;;0.20;0.20;;;;;;;;;;4842770;29;20053;-87
2023/09/19 11:21:30;;;;;;;0.10;0.10;;;;;;;;;;4826299;29;20049;-87
2023/09/19 11:24:09;;;;;;;0.10;0.10;;;;;;;;;;4826159;29;20120;-87
2023/09/19 11:26:51;;;;;;;0.10;0.10;;;;;;;;;;4825911;29;20502;-87
2023/09/19 11:29:17;;;;;;;;;;;;;;;;;;4797598;29;20136;-89
2023/09/19 11:31:44;;;;;;;0.10;0.10;;;;;;;;;;4826128;29;19921;-87
2023/09/19 11:34:29;;;;;;;0.10;0.10;;;;;;;;;;4795885;29;20042;-86
2023/09/19 11:36:56;;;;;;;0.10;0.10;;;;;;;;;;4826020;29;20046;-87
2023/09/19 11:39:26;;;;;;;0.20;0.20;;;;;;;;;;4826341;29;20050;-88
2023/09/19 11:41:56;;;;;;;0.20;0.20;;;;;;;;;;4810857;29;20114;-86
2023/09/19 11:44:33;;;;;;;0.20;0.20;;;;;;;;;;4825898;29;20061;-86
2023/09/19 11:46:59;;;;;;;0.10;0.10;;;;;;;;;;4811384;29;20087;-87
2023/09/19 11:49:32;;;;;;;0.10;0.10;;;;;;;;;;4810613;29;20089;-86
2023/09/19 11:52:04;;;;;;;0.17;0.17;;;;;;;;;;4826123;29;20061;-89
2023/09/19 11:54:31;;;;;;;;;;;;;;;;;;4827433;29;20431;-86
2023/09/19 11:56:58;;;;;;;0.10;0.10;;;;;;;;;;4825763;29;19937;-88
2023/09/19 11:59:29;;;;;;;0.30;0.30;;;;;;;;;;4810663;29;20046;-86
2023/09/19 12:02:01;;;;;;;0.10;0.10;;;;;;;;;;4825554;29;20125;-87
2023/09/19 12:04:41;;;;;;;0.10;0.10;;;;;;;;;;4825633;29;20046;-87
2023/09/19 12:07:10;;;;;;;0.10;0.10;;;;;;;;;;4795551;29;20050;-87
2023/09/19 12:09:38;;;;;;;0.10;0.10;;;;;;;;;;4810730;29;20504;-87
2023/09/19 12:12:04;;;;;;;0.20;0.20;;;;;;;;;;4810735;29;20402;-87
2023/09/19 12:14:30;;;;;;;0.20;0.20;;;;;;;;;;4825736;29;20049;-87
2023/09/19 12:16:57;;;;;;;0.10;0.10;;;;;;;;;;4810369;29;20038;-88
2023/09/19 12:19:23;;;;;;;0.10;0.10;;;;;;;;;;4810633;29;20041;-87
2023/09/19 12:21:59;;;;;;;0.10;0.10;;;;;;;;;;4825774;29;20053;-87
2023/09/19 12:24:26;;;;;;;0.10;0.10;;;;;;;;;;4810956;29;20046;-88
2023/09/19 12:26:52;;;;;;;0.10;0.10;;;;;;;;;;4810131;29;20069;-86
2023/09/19 12:29:20;;;;;;;1.85;0.85;;;;;;;;;;4809963;29;20494;-87
2023/09/19 12:31:53;;;;;;;0.15;0.15;;;;;;;;;;4825282;29;20505;-87
2023/09/19 12:34:29;;;;;;;0.10;0.10;;;;;;;;;;4810239;29;20108;-86
2023/09/19 12:37:10;;;;;;;0.28;0.28;;;;;;;;;;4810634;29;20360;-87
2023/09/19 12:39:36;;;;;;;0.10;0.10;;;;;;;;;;4810849;29;20451;-87
2023/09/19 12:42:04;;;;;;;0.10;0.10;;;;;;;;;;4825157;29;20081;-87
2023/09/19 12:44:30;;;;;;;0.10;0.10;;;;;;;;;;4825107;29;20045;-87
2023/09/19 12:46:59;;;;;;;0.20;0.20;;;;;;;;;;4824968;29;20038;-87
2023/09/19 12:49:25;;;;;;;0.10;0.10;;;;;;;;;;4841183;29;20053;-87
2023/09/19 12:51:52;;;;;;;0.10;0.10;;;;;;;;;;4810305;29;20049;-86
2023/09/19 12:54:19;;;;;;;0.10;0.10;;;;;;;;;;4809794;29;20056;-89
2023/09/19 12:56:45;;;;;;;0.20;0.20;;;;;;;;;;4825802;29;20077;-88
2023/09/19 12:59:13;;;;;;;0.15;0.15;;;;;;;;;;4795009;29;20506;-88
2023/09/19 13:01:43;;;;;;;0.20;0.20;;;;;;;;;;4795431;29;20155;-88
2023/09/19 13:04:12;;;;;;;0.10;0.10;;;;;;;;;;4810576;29;20052;-88
2023/09/19 13:06:40;;;;;;;0.20;0.20;;;;;;;;;;4810303;29;20065;-88
2023/09/19 13:09:10;;;;;;;0.20;0.20;;;;;;;;;;4810277;29;20056;-88
2023/09/19 13:11:40;;;;;;;0.20;0.20;;;;;;;;;;4810267;29;20046;-88
2023/09/19 13:14:28;;;;;;;0.15;0.15;;;;;;;;;;4810424;29;20046;-88
2023/09/19 13:16:57;;;;;;;0.10;0.10;;;;;;;;;;4826122;29;20050;-87
2023/09/19 13:19:45;;;;;;;0.13;0.13;;;;;;;;;;4809978;29;20110;-87
2023/09/19 13:22:31;;;;;;;0.10;0.10;;;;;;;;;;4795398;29;20046;-88
2023/09/19 13:24:58;;;;;;;0.10;0.10;;;;;;;;;;4825139;29;20062;-87
2023/09/19 13:27:24;;;;;;;0.20;0.20;;;;;;;;;;4809811;29;20062;-88
2023/09/19 13:29:50;;;;;;;0.10;0.10;;;;;;;;;;4812159;29;20113;-87
2023/09/19 13:32:16;;;;;;;0.10;0.10;;;;;;;;;;4813354;29;20046;-88
2023/09/19 13:34:42;;;;;;;0.10;0.10;;;;;;;;;;4844731;29;20050;-87
2023/09/19 13:37:09;;;;;;;0.20;0.20;;;;;;;;;;4828244;29;20038;-87
2023/09/19 13:39:36;;;;;;;0.20;0.20;;;;;;;;;;4828211;29;20057;-87
2023/09/19 13:42:02;;;;;;;0.10;0.10;;;;;;;;;;4813488;29;20506;-87
2023/09/19 13:44:29;;;;;;;0.20;0.20;;;;;;;;;;4798064;29;20087;-88
2023/09/19 13:46:56;;;;;;;0.30;0.25;;;;;;;;;;4813294;29;20072;-88
2023/09/19 13:49:23;;;;;;;0.55;0.30;;;;;;;;;;4842873;29;20083;-87
2023/09/19 13:51:49;;;;;;;0.20;0.20;;;;;;;;;;4827852;29;20050;-88
2023/09/19 13:54:15;;;;;;;0.40;0.40;;;;;;;;;;4812927;29;20045;-88
2023/09/19 13:56:41;;;;;;;0.10;0.10;;;;;;;;;;4828212;29;20038;-88
2023/09/19 13:59:07;;;;;;;0.20;0.20;;;;;;;;;;4827943;29;20041;-88
2023/09/19 14:01:33;;;;;;;0.30;0.30;;;;;;;;;;4813045;29;20125;-88
2023/09/19 14:03:59;;;;;;;0.50;0.50;;;;;;;;;;4797656;29;20046;-88
2023/09/19 14:06:25;;;;;;;0.10;0.10;;;;;;;;;;4812469;29;20050;-88
2023/09/19 14:08:52;;;;;;;0.10;0.10;;;;;;;;;;4827545;29;20057;-89
2023/09/19 14:11:18;;;;;;;0.10;0.10;;;;;;;;;;4812869;29;20064;-87
2023/09/19 14:13:46;;;;;;;0.10;0.10;;;;;;;;;;4827667;29;20082;-88
2023/09/19 14:16:12;;;;;;;0.47;0.47;;;;;;;;;;4812718;29;20045;-88
2023/09/19 14:18:39;;;;;;;0.10;0.10;;;;;;;;;;4827712;29;20513;-88
2023/09/19 14:21:05;;;;;;;0.20;0.20;;;;;;;;;;4797647;29;20046;-88
2023/09/19 14:23:37;;;;;;;0.10;0.10;;;;;;;;;;4797374;29;20561;-89
2023/09/19 14:26:05;;;;;;;0.10;0.10;;;;;;;;;;4812255;29;20053;-88
2023/09/19 14:28:30;;;;;;;0.20;0.20;;;;;;;;;;4827135;29;20057;-88
2023/09/19 14:30:56;;;;;;;0.10;0.10;;;;;;;;;;4812484;29;20042;-88
2023/09/19 14:33:22;;;;;;;0.10;0.10;;;;;;;;;;4827130;29;20048;-88
2023/09/19 14:35:48;;;;;;;0.10;0.10;;;;;;;;;;4827419;29;20042;-89
2023/09/19 14:38:14;;;;;;;0.10;0.10;;;;;;;;;;4812422;29;20045;-88
2023/09/19 14:40:41;;;;;;;0.10;0.10;;;;;;;;;;4811759;29;20094;-87
2023/09/19 14:43:08;;;;;;;0.10;0.10;;;;;;;;;;4811983;29;20050;-88
2023/09/19 14:45:36;;;;;;;1.23;0.20;;;;;;;;;;4827061;29;20042;-88
2023/09/19 14:48:05;;;;;;;0.10;0.10;;;;;;;;;;4812363;29;20050;-89
2023/09/19 14:50:31;;;;;;;0.10;0.10;;;;;;;;;;4827856;29;20121;-88
2023/09/19 14:52:57;;;;;;;0.10;0.10;;;;;;;;;;4811957;29;20131;-87